Time;durP1;ratioP1;P1;durP2;ratioP2;P2;SDS_P1;SDS_P2;PMS_P1;PMS_P2;Temp;Humidity;BMP_temperature;BMP_pressure;BME280_temperature;BME280_humidity;BME280_pressure;Samples;Min_cycle;Max_cycle;Signal;HPM_P1;HPM_P2
2023/04/16 00:00:09;;;;;;;30.07;20.20;;;9.70;99.90;;;;;;5034908;28;20661;-70
2023/04/16 00:02:35;;;;;;;26.37;17.93;;;9.70;99.90;;;;;;5041191;28;20280;-69
2023/04/16 00:05:00;;;;;;;28.17;20.37;;;9.70;99.90;;;;;;5037219;28;20425;-68
2023/04/16 00:07:26;;;;;;;25.50;19.10;;;9.60;99.90;;;;;;5046275;28;20186;-69
2023/04/16 00:09:51;;;;;;;24.20;19.13;;;9.70;99.90;;;;;;5043841;28;20178;-70
2023/04/16 00:12:17;;;;;;;28.53;20.00;;;9.70;99.90;;;;;;5046669;28;20195;-69
2023/04/16 00:14:42;;;;;;;30.23;21.27;;;9.70;99.90;;;;;;5038365;28;20580;-70
2023/04/16 00:17:08;;;;;;;31.03;21.97;;;9.70;99.90;;;;;;5036175;28;20634;-71
2023/04/16 00:19:35;;;;;;;27.60;20.10;;;9.70;99.90;;;;;;5035383;28;20181;-70
2023/04/16 00:22:00;;;;;;;24.43;19.73;;;9.80;99.90;;;;;;5046088;28;20648;-70
2023/04/16 00:24:26;;;;;;;26.63;20.00;;;9.70;99.90;;;;;;5049623;28;20505;-71
2023/04/16 00:26:52;;;;;;;32.03;21.33;;;9.70;99.90;;;;;;5047536;28;20422;-68
2023/04/16 00:29:17;;;;;;;25.23;19.03;;;9.70;99.90;;;;;;5054671;28;20274;-68
2023/04/16 00:31:43;;;;;;;26.10;20.87;;;9.70;99.90;;;;;;5036790;28;20179;-69
2023/04/16 00:34:08;;;;;;;26.77;20.47;;;9.70;99.90;;;;;;5044479;28;20722;-70
2023/04/16 00:36:34;;;;;;;28.17;19.20;;;9.70;99.90;;;;;;5049528;28;20170;-68
2023/04/16 00:38:59;;;;;;;28.20;19.40;;;9.70;99.90;;;;;;5050645;28;20206;-68
2023/04/16 00:41:25;;;;;;;30.43;20.47;;;9.70;99.90;;;;;;5053353;28;20237;-70
2023/04/16 00:43:53;;;;;;;28.90;20.40;;;9.70;99.90;;;;;;5049718;28;20252;-69
2023/04/16 00:46:22;;;;;;;30.90;19.90;;;9.70;99.90;;;;;;5043262;28;20498;-68
2023/04/16 00:48:48;;;;;;;27.87;19.97;;;9.70;99.90;;;;;;5045465;28;20416;-69
2023/04/16 00:51:14;;;;;;;26.40;18.63;;;9.70;99.90;;;;;;5054346;28;20499;-69
2023/04/16 00:53:40;;;;;;;27.37;20.13;;;9.70;99.90;;;;;;5048360;28;20455;-68
2023/04/16 00:56:06;;;;;;;29.37;20.60;;;9.70;99.90;;;;;;5052937;28;20499;-69
2023/04/16 00:58:35;;;;;;;26.20;20.00;;;9.70;99.90;;;;;;5055622;28;20413;-68
2023/04/16 01:01:00;;;;;;;30.47;22.53;;;9.70;99.90;;;;;;5038064;28;20407;-69
2023/04/16 01:03:38;;;;;;;33.17;20.20;;;9.70;99.90;;;;;;5041234;28;20858;-68
2023/04/16 01:06:05;;;;;;;29.77;20.60;;;9.70;99.90;;;;;;5037619;28;20187;-70
2023/04/16 01:08:30;;;;;;;29.87;20.77;;;9.70;99.90;;;;;;5037038;28;20464;-69
2023/04/16 01:10:56;;;;;;;27.07;20.50;;;9.60;99.90;;;;;;5035432;28;20516;-71
2023/04/16 01:13:22;;;;;;;27.20;19.87;;;9.60;99.90;;;;;;5037731;28;20234;-69
2023/04/16 01:15:47;;;;;;;26.63;18.80;;;9.60;99.90;;;;;;5039100;28;20237;-68
2023/04/16 01:18:18;;;;;;;26.03;19.87;;;9.60;99.90;;;;;;5039834;28;20215;-69
2023/04/16 01:20:45;;;;;;;27.30;19.80;;;9.70;99.90;;;;;;5041641;28;20173;-68
2023/04/16 01:23:10;;;;;;;29.27;18.40;;;9.70;99.90;;;;;;5048505;28;20448;-68
2023/04/16 01:25:37;;;;;;;29.83;20.60;;;9.70;99.90;;;;;;5049774;28;21017;-69
2023/04/16 01:28:02;;;;;;;27.10;19.70;;;9.60;99.90;;;;;;5049577;28;20179;-68
2023/04/16 01:30:28;;;;;;;26.23;19.73;;;9.70;99.90;;;;;;5056473;28;20421;-69
2023/04/16 01:32:54;;;;;;;28.77;20.20;;;9.60;99.90;;;;;;5042460;28;20211;-68
2023/04/16 01:35:19;;;;;;;24.90;17.83;;;9.60;99.90;;;;;;5051602;28;20644;-67
2023/04/16 01:37:45;;;;;;;24.37;19.43;;;9.60;99.90;;;;;;5050357;28;20660;-69
2023/04/16 01:40:11;;;;;;;25.33;19.07;;;9.60;99.90;;;;;;5048492;28;20175;-68
2023/04/16 01:42:37;;;;;;;31.33;20.03;;;9.60;99.90;;;;;;5043835;28;20293;-70
2023/04/16 01:45:03;;;;;;;24.50;19.20;;;9.70;99.90;;;;;;5037940;28;20244;-70
2023/04/16 01:47:29;;;;;;;24.57;19.57;;;9.60;99.90;;;;;;5037211;28;20497;-69
2023/04/16 01:49:55;;;;;;;26.27;18.17;;;9.60;99.90;;;;;;5039618;28;20911;-70
2023/04/16 01:52:21;;;;;;;31.70;20.93;;;9.60;99.90;;;;;;5042455;28;20198;-68
2023/04/16 01:54:46;;;;;;;28.37;20.30;;;9.60;99.90;;;;;;5023517;28;20232;-68
2023/04/16 01:57:12;;;;;;;29.70;21.07;;;9.60;99.90;;;;;;5046217;28;20266;-69
2023/04/16 01:59:38;;;;;;;31.00;20.40;;;9.60;99.90;;;;;;5055985;28;20245;-69
2023/04/16 02:02:11;;;;;;;27.43;18.77;;;9.50;99.90;;;;;;5043943;28;20217;-70
2023/04/16 02:04:42;;;;;;;27.93;20.00;;;9.50;99.90;;;;;;5036424;28;20582;-71
2023/04/16 02:07:09;;;;;;;24.20;17.63;;;9.50;99.90;;;;;;5043032;28;20432;-72
2023/04/16 02:09:36;;;;;;;24.50;18.47;;;9.50;99.90;;;;;;5067172;28;20432;-69
2023/04/16 02:12:02;;;;;;;25.30;17.67;;;9.50;99.90;;;;;;5061494;28;20460;-70
2023/04/16 02:14:31;;;;;;;23.10;18.17;;;9.40;99.90;;;;;;5066679;28;20445;-71
2023/04/16 02:16:57;;;;;;;20.77;16.73;;;9.50;99.90;;;;;;5060468;28;20422;-68
2023/04/16 02:19:22;;;;;;;24.17;18.83;;;9.50;99.90;;;;;;5064471;28;20900;-69
2023/04/16 02:21:50;;;;;;;29.53;17.60;;;9.50;99.90;;;;;;5051724;28;20439;-69
2023/04/16 02:24:16;;;;;;;22.37;18.40;;;9.50;99.90;;;;;;5041497;28;20210;-69
2023/04/16 02:26:42;;;;;;;26.80;19.60;;;9.50;99.90;;;;;;5037448;28;20432;-70
2023/04/16 02:29:07;;;;;;;23.97;18.90;;;9.50;99.90;;;;;;5036523;28;20178;-68
2023/04/16 02:31:33;;;;;;;27.80;19.47;;;9.40;99.90;;;;;;5056286;28;20249;-69
2023/04/16 02:33:59;;;;;;;29.80;22.20;;;9.40;99.90;;;;;;5061614;28;20241;-69
2023/04/16 02:36:24;;;;;;;31.30;21.63;;;9.40;99.90;;;;;;5063132;28;20206;-70
2023/04/16 02:38:50;;;;;;;24.10;17.83;;;9.40;99.90;;;;;;5062044;28;20275;-69
2023/04/16 02:41:16;;;;;;;32.07;20.23;;;9.40;99.90;;;;;;5063223;28;20192;-68
2023/04/16 02:43:41;;;;;;;26.97;19.73;;;9.40;99.90;;;;;;5063378;28;20709;-69
2023/04/16 02:46:07;;;;;;;23.80;19.30;;;9.40;99.90;;;;;;5048317;28;20339;-69
2023/04/16 02:48:32;;;;;;;25.10;18.73;;;9.30;99.90;;;;;;5058233;28;20188;-70
2023/04/16 02:50:58;;;;;;;25.50;18.83;;;9.40;99.90;;;;;;5057599;28;20665;-68
2023/04/16 02:53:24;;;;;;;28.37;20.53;;;9.40;99.90;;;;;;5057067;28;20621;-69
2023/04/16 02:55:54;;;;;;;26.40;18.87;;;9.30;99.90;;;;;;5032299;28;20542;-70
2023/04/16 02:58:21;;;;;;;29.53;20.30;;;9.40;99.90;;;;;;5033543;28;20190;-72
2023/04/16 03:00:47;;;;;;;28.00;19.77;;;9.30;99.90;;;;;;5042828;28;20943;-70
2023/04/16 03:03:13;;;;;;;29.73;21.20;;;9.30;99.90;;;;;;5060246;28;20456;-70
2023/04/16 03:05:39;;;;;;;30.50;21.67;;;9.20;99.90;;;;;;5063806;28;20181;-69
2023/04/16 03:08:05;;;;;;;33.77;22.47;;;9.30;99.90;;;;;;5060603;28;20791;-69
2023/04/16 03:10:31;;;;;;;35.63;22.40;;;9.30;99.90;;;;;;5063462;28;20595;-68
2023/04/16 03:12:57;;;;;;;30.10;21.90;;;9.30;99.90;;;;;;5063073;28;20486;-68
2023/04/16 03:15:23;;;;;;;30.90;21.53;;;9.20;99.90;;;;;;5057983;28;20422;-68
2023/04/16 03:17:48;;;;;;;31.50;20.40;;;9.20;99.90;;;;;;5050123;28;20425;-69
2023/04/16 03:20:15;;;;;;;35.40;21.83;;;9.20;99.90;;;;;;5059688;28;20406;-68
2023/04/16 03:22:41;;;;;;;30.37;21.50;;;9.20;99.90;;;;;;5051911;28;20194;-68
2023/04/16 03:25:08;;;;;;;35.30;23.20;;;9.10;99.90;;;;;;5059748;28;20468;-69
2023/04/16 03:27:34;;;;;;;33.50;21.30;;;9.10;99.90;;;;;;5060143;28;20415;-69
2023/04/16 03:30:00;;;;;;;32.77;20.47;;;9.20;99.90;;;;;;5060337;28;20411;-69
2023/04/16 03:32:25;;;;;;;33.43;20.27;;;9.10;99.90;;;;;;5061459;28;20450;-69
2023/04/16 03:34:51;;;;;;;32.00;20.63;;;9.10;99.90;;;;;;5053215;28;20185;-68
2023/04/16 03:37:16;;;;;;;32.10;21.77;;;9.00;99.90;;;;;;5061160;28;20171;-68
2023/04/16 03:39:42;;;;;;;25.33;18.10;;;9.00;99.90;;;;;;5052381;28;20199;-70
2023/04/16 03:42:08;;;;;;;32.20;22.67;;;9.00;99.90;;;;;;5035731;28;20210;-68
2023/04/16 03:44:34;;;;;;;28.07;20.20;;;9.10;99.90;;;;;;5052713;28;20300;-68
2023/04/16 03:46:59;;;;;;;30.93;19.80;;;9.10;99.90;;;;;;5060687;28;20715;-70
2023/04/16 03:49:25;;;;;;;29.13;20.33;;;9.10;99.90;;;;;;5060711;28;20181;-69
2023/04/16 03:51:50;;;;;;;27.70;20.30;;;9.10;99.90;;;;;;5059368;28;20178;-69
2023/04/16 03:54:16;;;;;;;36.87;21.07;;;9.10;99.90;;;;;;5056840;28;20539;-68
2023/04/16 03:56:42;;;;;;;29.83;18.53;;;9.10;99.90;;;;;;5063985;28;20176;-68
2023/04/16 03:59:08;;;;;;;31.23;19.10;;;9.00;99.90;;;;;;5053942;28;20642;-69
2023/04/16 04:01:34;;;;;;;28.90;20.07;;;9.00;99.90;;;;;;5056170;28;20200;-69
2023/04/16 04:03:59;;;;;;;22.77;17.43;;;9.00;99.90;;;;;;5052883;28;20965;-69
2023/04/16 04:06:26;;;;;;;27.00;18.03;;;9.00;99.90;;;;;;5051600;28;20184;-70
2023/04/16 04:08:52;;;;;;;33.00;19.90;;;9.00;99.90;;;;;;5053554;28;20206;-68
2023/04/16 04:11:18;;;;;;;25.87;19.80;;;8.90;99.90;;;;;;5061876;28;20432;-69
2023/04/16 04:13:43;;;;;;;28.90;17.87;;;9.00;99.90;;;;;;5056886;28;20464;-68
2023/04/16 04:16:09;;;;;;;24.03;17.20;;;8.90;99.90;;;;;;5058070;28;20720;-69
2023/04/16 04:18:35;;;;;;;33.17;20.13;;;9.00;99.90;;;;;;5056832;28;20261;-68
2023/04/16 04:21:08;;;;;;;29.43;19.10;;;9.00;99.90;;;;;;5059296;28;20515;-68
2023/04/16 04:23:34;;;;;;;35.20;19.87;;;9.00;99.90;;;;;;5054932;28;20281;-70
2023/04/16 04:26:02;;;;;;;30.93;22.40;;;9.00;99.90;;;;;;5060127;28;20919;-68
2023/04/16 04:28:29;;;;;;;30.40;19.77;;;8.90;99.90;;;;;;5063312;28;20483;-69
2023/04/16 04:30:56;;;;;;;26.10;19.40;;;8.90;99.90;;;;;;5058317;28;20409;-67
2023/04/16 04:33:22;;;;;;;24.80;19.30;;;9.00;99.90;;;;;;5058880;28;20478;-69
2023/04/16 04:35:47;;;;;;;38.17;19.67;;;9.00;99.90;;;;;;5055825;28;20472;-67
2023/04/16 04:38:13;;;;;;;31.40;20.70;;;9.00;99.90;;;;;;5052661;28;20183;-68
2023/04/16 04:40:39;;;;;;;27.17;19.80;;;9.00;99.90;;;;;;5053331;28;20801;-68
2023/04/16 04:43:04;;;;;;;36.60;22.17;;;8.90;99.90;;;;;;5057100;28;20272;-68
2023/04/16 04:45:30;;;;;;;37.13;21.13;;;8.90;99.90;;;;;;5059072;28;20180;-67
2023/04/16 04:47:55;;;;;;;36.70;22.83;;;8.90;99.90;;;;;;5062922;28;20246;-68
2023/04/16 04:50:21;;;;;;;27.80;19.27;;;9.00;99.90;;;;;;5063680;28;20183;-67
2023/04/16 04:52:47;;;;;;;29.57;20.17;;;8.90;99.90;;;;;;5064384;28;20204;-67
2023/04/16 04:55:14;;;;;;;35.00;20.30;;;8.90;99.90;;;;;;5047088;28;20231;-68
2023/04/16 04:57:40;;;;;;;28.40;18.70;;;9.00;99.90;;;;;;5032124;28;20598;-68
2023/04/16 05:00:06;;;;;;;26.13;20.80;;;8.80;99.90;;;;;;5037111;28;20435;-67
2023/04/16 05:02:32;;;;;;;28.53;18.77;;;8.90;99.90;;;;;;5055105;28;20438;-67
2023/04/16 05:04:58;;;;;;;37.57;19.93;;;8.90;99.90;;;;;;5058739;28;20829;-68
2023/04/16 05:07:23;;;;;;;34.50;20.03;;;8.90;99.90;;;;;;5057139;28;20192;-67
2023/04/16 05:09:49;;;;;;;31.73;19.60;;;8.80;99.90;;;;;;5038268;28;20186;-71
2023/04/16 05:12:15;;;;;;;30.30;19.83;;;8.80;99.90;;;;;;5048497;28;20562;-68
2023/04/16 05:14:40;;;;;;;32.10;20.50;;;8.80;99.90;;;;;;5057852;28;20204;-69
2023/04/16 05:17:06;;;;;;;36.03;20.43;;;8.80;99.90;;;;;;5057887;28;20430;-69
2023/04/16 05:19:32;;;;;;;28.23;19.63;;;8.90;99.90;;;;;;5053871;28;20171;-68
2023/04/16 05:21:58;;;;;;;25.97;17.53;;;8.90;99.90;;;;;;5060111;28;20277;-69
2023/04/16 05:24:24;;;;;;;24.63;18.33;;;8.90;99.90;;;;;;5062000;28;20193;-68
2023/04/16 05:26:50;;;;;;;32.10;17.63;;;8.80;99.90;;;;;;5066882;28;20964;-68
2023/04/16 05:29:15;;;;;;;31.53;19.30;;;8.90;99.90;;;;;;5053195;28;20264;-70
2023/04/16 05:31:41;;;;;;;26.20;18.47;;;8.80;99.90;;;;;;5049847;28;20870;-68
2023/04/16 05:34:06;;;;;;;29.60;20.17;;;8.80;99.90;;;;;;5057491;28;20697;-68
2023/04/16 05:36:32;;;;;;;25.17;17.87;;;8.80;99.90;;;;;;5057415;28;20736;-68
2023/04/16 05:38:58;;;;;;;25.80;18.33;;;8.80;99.90;;;;;;5062040;28;20176;-70
2023/04/16 05:41:23;;;;;;;28.00;19.17;;;8.90;99.90;;;;;;5061526;28;20189;-68
2023/04/16 05:43:49;;;;;;;27.27;18.70;;;8.90;99.90;;;;;;5064737;28;20280;-69
2023/04/16 05:46:14;;;;;;;27.10;17.50;;;8.90;99.90;;;;;;5064197;28;20171;-68
2023/04/16 05:48:40;;;;;;;30.83;19.60;;;8.90;99.90;;;;;;5059948;28;20724;-69
2023/04/16 05:51:06;;;;;;;27.87;18.27;;;8.90;99.90;;;;;;5035289;28;20181;-71
2023/04/16 05:53:31;;;;;;;29.33;21.00;;;8.80;99.90;;;;;;5036565;28;20255;-67
2023/04/16 05:55:57;;;;;;;31.33;18.90;;;8.90;99.90;;;;;;5038263;28;20176;-71
2023/04/16 05:58:22;;;;;;;23.17;18.30;;;8.90;99.90;;;;;;5036314;28;20184;-70
2023/04/16 06:00:48;;;;;;;26.63;19.70;;;8.90;99.90;;;;;;5044968;28;20169;-69
2023/04/16 06:03:13;;;;;;;25.87;19.10;;;9.00;99.90;;;;;;5057331;28;20203;-68
2023/04/16 06:05:39;;;;;;;24.67;16.90;;;9.00;99.90;;;;;;5062962;28;20172;-67
2023/04/16 06:08:05;;;;;;;30.47;20.10;;;9.00;99.90;;;;;;5059168;28;20547;-68
2023/04/16 06:10:30;;;;;;;26.03;16.87;;;9.00;99.90;;;;;;5064422;28;20197;-69
2023/04/16 06:12:56;;;;;;;24.23;17.07;;;9.10;99.90;;;;;;5053055;28;20208;-68
2023/04/16 06:15:22;;;;;;;30.70;17.70;;;9.10;99.90;;;;;;5064015;28;20169;-68
2023/04/16 06:17:48;;;;;;;28.30;18.40;;;9.10;99.90;;;;;;5044285;28;20662;-69
2023/04/16 06:20:14;;;;;;;20.70;16.30;;;9.10;99.90;;;;;;5057326;28;20176;-68
2023/04/16 06:22:40;;;;;;;25.30;18.47;;;9.10;99.90;;;;;;5057914;28;20437;-69
2023/04/16 06:25:06;;;;;;;22.93;16.63;;;9.10;99.90;;;;;;5059248;28;20187;-69
2023/04/16 06:27:31;;;;;;;36.83;20.33;;;9.10;99.90;;;;;;5062525;28;20323;-68
2023/04/16 06:29:57;;;;;;;27.40;18.00;;;9.10;99.90;;;;;;5063420;28;20418;-67
2023/04/16 06:32:23;;;;;;;23.43;16.10;;;9.20;99.90;;;;;;5059971;28;20206;-68
2023/04/16 06:34:48;;;;;;;25.07;16.43;;;9.10;99.90;;;;;;5065280;28;20410;-68
2023/04/16 06:37:15;;;;;;;31.43;19.63;;;9.10;99.90;;;;;;5054914;28;20803;-68
2023/04/16 06:39:40;;;;;;;30.70;17.90;;;9.20;99.90;;;;;;5058449;28;20175;-69
2023/04/16 06:42:06;;;;;;;27.17;18.13;;;9.30;99.90;;;;;;5057955;28;20500;-68
2023/04/16 06:44:32;;;;;;;28.70;17.43;;;9.30;99.90;;;;;;5058407;28;20816;-72
2023/04/16 06:46:57;;;;;;;31.60;18.87;;;9.40;99.90;;;;;;5043991;28;20438;-69
2023/04/16 06:49:23;;;;;;;22.53;17.60;;;9.30;99.90;;;;;;5054750;28;20841;-68
2023/04/16 06:51:49;;;;;;;25.27;16.23;;;9.30;99.90;;;;;;5062937;28;20249;-69
2023/04/16 06:54:15;;;;;;;26.47;17.87;;;9.20;99.90;;;;;;5058166;28;20201;-68
2023/04/16 06:56:41;;;;;;;26.87;17.00;;;9.40;99.90;;;;;;5059589;28;20201;-68
2023/04/16 06:59:07;;;;;;;25.97;18.23;;;9.30;99.90;;;;;;5058879;28;20783;-68
2023/04/16 07:01:32;;;;;;;30.53;19.40;;;9.20;99.90;;;;;;5043796;28;20192;-71
2023/04/16 07:03:58;;;;;;;26.70;18.27;;;9.30;99.90;;;;;;5032526;28;20691;-71
2023/04/16 07:06:24;;;;;;;27.87;18.83;;;9.30;99.90;;;;;;5062470;28;20162;-68
2023/04/16 07:08:49;;;;;;;26.63;17.47;;;9.30;99.90;;;;;;5060557;28;20269;-67
2023/04/16 07:11:16;;;;;;;31.97;17.70;;;9.40;99.90;;;;;;5063550;28;20171;-69
2023/04/16 07:13:41;;;;;;;26.57;18.30;;;9.30;99.90;;;;;;5060254;28;20241;-67
2023/04/16 07:16:07;;;;;;;27.40;18.07;;;9.30;99.90;;;;;;5059330;28;20944;-69
2023/04/16 07:18:32;;;;;;;25.50;15.87;;;9.30;99.90;;;;;;5064954;28;20178;-68
2023/04/16 07:20:58;;;;;;;31.20;16.60;;;9.30;99.90;;;;;;5058654;28;20176;-68
2023/04/16 07:23:23;;;;;;;30.83;19.17;;;9.40;99.90;;;;;;5053918;28;20260;-70
2023/04/16 07:25:49;;;;;;;28.70;18.73;;;9.40;99.90;;;;;;5045948;28;20253;-69
2023/04/16 07:28:18;;;;;;;23.70;17.77;;;9.40;99.90;;;;;;5050736;28;20182;-73
2023/04/16 07:30:43;;;;;;;26.40;18.77;;;9.30;99.90;;;;;;5039881;28;20172;-69
2023/04/16 07:33:09;;;;;;;26.60;17.47;;;9.20;99.90;;;;;;5034006;28;20476;-69
2023/04/16 07:35:35;;;;;;;25.73;16.67;;;9.20;99.90;;;;;;5039960;28;20208;-72
2023/04/16 07:38:01;;;;;;;25.23;17.80;;;9.20;99.90;;;;;;5039435;28;20171;-68
2023/04/16 07:40:26;;;;;;;27.53;17.93;;;9.30;99.90;;;;;;5049521;28;20164;-68
2023/04/16 07:42:53;;;;;;;28.50;17.47;;;9.20;99.90;;;;;;5041738;28;20199;-70
2023/04/16 07:45:18;;;;;;;27.90;16.80;;;9.20;99.90;;;;;;5040145;28;20674;-68
2023/04/16 07:47:44;;;;;;;23.07;14.93;;;9.40;99.90;;;;;;5044604;28;20454;-68
2023/04/16 07:50:11;;;;;;;21.80;17.83;;;9.40;99.90;;;;;;5043598;28;20233;-69
2023/04/16 07:52:40;;;;;;;30.00;16.60;;;9.40;99.90;;;;;;5051413;28;20545;-68
2023/04/16 07:55:08;;;;;;;24.67;17.27;;;9.40;99.90;;;;;;5034694;28;20415;-69
2023/04/16 07:57:34;;;;;;;27.43;18.70;;;9.40;99.90;;;;;;5036165;28;20404;-69
2023/04/16 08:00:06;;;;;;;23.30;15.87;;;9.40;99.90;;;;;;5038985;28;20835;-72
2023/04/16 08:02:32;;;;;;;26.03;16.77;;;9.40;99.90;;;;;;5038452;28;20187;-68
2023/04/16 08:04:58;;;;;;;19.77;16.07;;;9.50;99.90;;;;;;5046012;28;20414;-68
2023/04/16 08:07:24;;;;;;;25.33;16.97;;;9.50;99.90;;;;;;5047113;28;20175;-68
2023/04/16 08:09:52;;;;;;;27.77;16.57;;;9.40;99.90;;;;;;5035894;28;20418;-68
2023/04/16 08:12:18;;;;;;;23.77;14.73;;;9.40;99.90;;;;;;5036708;28;20394;-70
2023/04/16 08:14:44;;;;;;;22.07;15.47;;;9.50;99.90;;;;;;5037344;28;20496;-71
2023/04/16 08:17:14;;;;;;;24.57;17.10;;;9.50;99.90;;;;;;5037172;28;21020;-72
2023/04/16 08:19:39;;;;;;;24.03;14.83;;;9.50;99.90;;;;;;5029620;28;20439;-68
2023/04/16 08:22:05;;;;;;;25.30;14.80;;;9.50;99.90;;;;;;5045498;28;20404;-70
2023/04/16 08:24:31;;;;;;;25.53;17.03;;;9.50;99.90;;;;;;5044973;28;20199;-69
2023/04/16 08:26:56;;;;;;;22.67;15.47;;;9.60;99.90;;;;;;5035007;28;20246;-70
2023/04/16 08:29:25;;;;;;;21.30;14.50;;;9.60;99.90;;;;;;5040291;28;20174;-68
2023/04/16 08:31:51;;;;;;;23.80;15.27;;;9.50;99.90;;;;;;5038553;28;20231;-68
2023/04/16 08:34:16;;;;;;;22.60;14.47;;;9.50;99.90;;;;;;5042747;28;20465;-69
2023/04/16 08:36:42;;;;;;;24.70;16.20;;;9.50;99.90;;;;;;5044176;28;20431;-71
2023/04/16 08:39:08;;;;;;;24.17;16.07;;;9.60;99.90;;;;;;5051713;28;20207;-72
2023/04/16 08:41:35;;;;;;;26.53;14.90;;;9.60;99.90;;;;;;5038385;28;20236;-70
2023/04/16 08:44:07;;;;;;;22.93;14.13;;;9.50;99.90;;;;;;5037536;28;20659;-72
2023/04/16 08:46:36;;;;;;;30.50;16.47;;;9.50;99.90;;;;;;5040627;28;20438;-69
2023/04/16 08:49:05;;;;;;;23.30;16.37;;;9.60;99.90;;;;;;5041294;28;20500;-69
2023/04/16 08:51:34;;;;;;;23.00;17.80;;;9.60;99.90;;;;;;5046805;28;21033;-70
2023/04/16 08:54:07;;;;;;;23.60;16.37;;;9.60;99.90;;;;;;5048978;28;20458;-70
2023/04/16 08:56:35;;;;;;;22.00;15.43;;;9.60;99.90;;;;;;5036869;28;20785;-68
2023/04/16 08:59:04;;;;;;;25.23;15.37;;;9.70;99.90;;;;;;5037671;28;20414;-68
2023/04/16 09:01:32;;;;;;;25.47;16.90;;;9.70;99.90;;;;;;5041514;28;20463;-69
2023/04/16 09:04:02;;;;;;;24.77;18.27;;;9.60;99.90;;;;;;5049903;28;20461;-70
2023/04/16 09:06:30;;;;;;;24.50;15.40;;;9.60;99.90;;;;;;5052334;28;21314;-69
2023/04/16 09:08:57;;;;;;;22.20;15.13;;;9.50;99.90;;;;;;5049692;28;20426;-68
2023/04/16 09:11:24;;;;;;;26.17;16.40;;;9.70;99.90;;;;;;5047608;28;20413;-69
2023/04/16 09:13:49;;;;;;;20.93;15.47;;;9.90;99.90;;;;;;5038388;28;20528;-69
2023/04/16 09:16:16;;;;;;;22.97;16.37;;;10.10;99.90;;;;;;5041361;28;20401;-69
2023/04/16 09:18:42;;;;;;;19.70;13.60;;;10.10;99.90;;;;;;5044042;28;20180;-69
2023/04/16 09:21:09;;;;;;;20.53;15.57;;;10.30;99.90;;;;;;5034245;28;21002;-69
2023/04/16 09:23:37;;;;;;;22.03;15.10;;;10.30;99.90;;;;;;5034487;28;20640;-73
2023/04/16 09:26:04;;;;;;;17.73;13.67;;;10.30;99.90;;;;;;5048577;28;20410;-70
2023/04/16 09:28:45;;;;;;;18.80;13.70;;;10.40;99.90;;;;;;5035645;28;20400;-69
2023/04/16 09:31:15;;;;;;;24.60;14.47;;;10.50;99.90;;;;;;5037656;28;20413;-70
2023/04/16 09:33:42;;;;;;;20.27;14.37;;;10.50;99.90;;;;;;5043822;28;20513;-69
2023/04/16 09:36:08;;;;;;;19.33;12.80;;;10.30;99.90;;;;;;5042018;28;20937;-70
2023/04/16 09:38:48;;;;;;;15.40;13.07;;;10.20;99.90;;;;;;5053499;28;20427;-69
2023/04/16 09:41:16;;;;;;;19.07;13.83;;;10.20;99.90;;;;;;5041054;28;20432;-69
2023/04/16 09:44:05;;;;;;;16.80;13.40;;;10.20;99.90;;;;;;5035323;28;20442;-70
2023/04/16 09:46:35;;;;;;;19.10;14.47;;;10.20;99.90;;;;;;5040096;28;20770;-70
2023/04/16 09:49:14;;;;;;;18.63;14.20;;;10.10;99.90;;;;;;5043171;28;20768;-69
2023/04/16 09:51:41;;;;;;;20.23;14.67;;;10.10;99.90;;;;;;5044554;28;20422;-70
2023/04/16 09:54:07;;;;;;;18.17;13.87;;;10.10;99.90;;;;;;5050521;28;20848;-69
2023/04/16 09:56:37;;;;;;;20.87;14.57;;;10.20;99.90;;;;;;5045455;28;20537;-69
2023/04/16 09:59:03;;;;;;;16.53;12.53;;;10.10;99.90;;;;;;5035574;28;20426;-70
2023/04/16 10:01:30;;;;;;;18.40;12.77;;;10.20;99.90;;;;;;5039849;28;20433;-68
2023/04/16 10:03:57;;;;;;;20.13;14.70;;;10.30;99.90;;;;;;5056662;28;20249;-68
2023/04/16 10:06:26;;;;;;;20.03;13.83;;;10.50;99.90;;;;;;5058316;28;20931;-69
2023/04/16 10:08:55;;;;;;;18.90;15.77;;;10.80;99.90;;;;;;5048734;28;20504;-72
2023/04/16 10:11:21;;;;;;;21.90;12.70;;;10.80;99.90;;;;;;5050723;28;20499;-69
2023/04/16 10:13:47;;;;;;;19.40;14.63;;;10.80;99.90;;;;;;5045811;28;20493;-70
2023/04/16 10:16:13;;;;;;;19.73;14.13;;;10.70;99.90;;;;;;5050334;28;20407;-70
2023/04/16 10:18:43;;;;;;;20.47;15.07;;;10.60;99.90;;;;;;5050245;28;20646;-71
2023/04/16 10:21:11;;;;;;;22.23;14.70;;;10.70;99.90;;;;;;5036421;28;20503;-69
2023/04/16 10:23:41;;;;;;;23.60;15.00;;;10.70;99.90;;;;;;5037930;28;20421;-69
2023/04/16 10:26:07;;;;;;;21.30;15.50;;;10.70;99.90;;;;;;5040673;28;20417;-69
2023/04/16 10:28:34;;;;;;;23.37;15.90;;;10.80;99.90;;;;;;5042227;28;21194;-68
2023/04/16 10:31:04;;;;;;;24.70;16.50;;;10.90;99.90;;;;;;5045382;28;20266;-67
2023/04/16 10:33:33;;;;;;;23.33;16.33;;;10.90;99.90;;;;;;5053484;28;20452;-68
2023/04/16 10:36:15;;;;;;;24.03;15.30;;;11.00;99.90;;;;;;5040652;28;20465;-71
2023/04/16 10:38:45;;;;;;;23.20;16.03;;;11.10;99.90;;;;;;5040087;28;20441;-69
2023/04/16 10:41:11;;;;;;;22.87;14.17;;;11.10;99.90;;;;;;5043305;28;20398;-69
2023/04/16 10:43:43;;;;;;;24.80;15.37;;;11.10;99.90;;;;;;5047693;28;20429;-68
2023/04/16 10:46:30;;;;;;;20.80;14.90;;;11.20;99.90;;;;;;5036378;28;20288;-70
2023/04/16 10:48:59;;;;;;;21.83;14.27;;;11.30;99.90;;;;;;5038788;28;20425;-67
2023/04/16 10:51:31;;;;;;;21.80;15.77;;;11.20;99.90;;;;;;5041734;28;20416;-68
2023/04/16 10:54:18;;;;;;;19.40;13.47;;;11.10;99.90;;;;;;5033142;28;20458;-69
2023/04/16 10:56:44;;;;;;;20.40;14.53;;;11.20;99.90;;;;;;5040580;28;20414;-69
2023/04/16 10:59:11;;;;;;;18.33;14.00;;;11.20;99.90;;;;;;5040131;28;20881;-68
2023/04/16 11:01:41;;;;;;;18.43;13.87;;;11.30;99.90;;;;;;5043299;28;20458;-68
2023/04/16 11:04:18;;;;;;;18.00;14.53;;;11.70;99.90;;;;;;5044882;28;20449;-71
2023/04/16 11:07:15;;;;;;;18.33;14.60;;;12.00;99.90;;;;;;5046351;28;20431;-70
2023/04/16 11:09:58;;;;;;;18.87;14.60;;;12.30;99.90;;;;;;5036498;28;20453;-68
2023/04/16 11:12:40;;;;;;;21.13;15.50;;;12.50;99.90;;;;;;5044111;28;20442;-69
2023/04/16 11:15:14;;;;;;;15.97;13.40;;;12.50;99.90;;;;;;5041772;28;20405;-68
2023/04/16 11:17:49;;;;;;;16.27;13.60;;;12.50;99.90;;;;;;5042975;28;20903;-70
2023/04/16 11:20:21;;;;;;;15.90;12.60;;;12.10;99.90;;;;;;5046858;28;20409;-69
2023/04/16 11:22:48;;;;;;;16.30;12.47;;;12.10;99.90;;;;;;5038457;28;20477;-67
2023/04/16 11:25:22;;;;;;;13.80;12.37;;;12.00;99.90;;;;;;5039032;28;20790;-69
2023/04/16 11:27:48;;;;;;;18.30;13.80;;;12.10;99.90;;;;;;5038662;28;20441;-68
2023/04/16 11:30:14;;;;;;;19.27;14.30;;;11.90;99.90;;;;;;5043507;28;20414;-69
2023/04/16 11:32:40;;;;;;;12.83;11.27;;;11.80;99.90;;;;;;5045852;28;20459;-68
2023/04/16 11:35:18;;;;;;;16.57;13.80;;;11.70;99.90;;;;;;5044491;28;20237;-70
2023/04/16 11:37:44;;;;;;;12.67;11.13;;;11.70;99.90;;;;;;5033470;28;20167;-68
2023/04/16 11:40:11;;;;;;;15.10;12.33;;;11.80;99.90;;;;;;5035719;28;20402;-68
2023/04/16 11:42:39;;;;;;;17.40;13.60;;;11.80;99.90;;;;;;5037525;28;20805;-70
2023/04/16 11:45:06;;;;;;;13.33;11.83;;;11.70;99.90;;;;;;5037967;28;20788;-69
2023/04/16 11:47:51;;;;;;;14.83;12.03;;;11.90;99.90;;;;;;5046632;28;20428;-70
2023/04/16 11:50:22;;;;;;;14.87;12.53;;;12.00;99.90;;;;;;5044046;28;20917;-69
2023/04/16 11:52:49;;;;;;;15.20;12.10;;;12.10;99.90;;;;;;5035612;28;20462;-68
2023/04/16 11:55:15;;;;;;;11.57;10.37;;;12.00;99.90;;;;;;5030597;28;20990;-70
2023/04/16 11:57:41;;;;;;;13.57;10.40;;;12.10;99.90;;;;;;5044175;28;20424;-70
2023/04/16 12:00:12;;;;;;;13.10;11.20;;;11.90;99.90;;;;;;5045176;28;20429;-68
2023/04/16 12:02:43;;;;;;;16.77;11.77;;;11.90;99.90;;;;;;5039611;28;20235;-67
2023/04/16 12:05:29;;;;;;;14.40;9.20;;;11.80;99.90;;;;;;5042022;28;20406;-68
2023/04/16 12:07:55;;;;;;;10.77;9.53;;;11.90;99.90;;;;;;5037879;28;20417;-68
2023/04/16 12:10:21;;;;;;;12.50;9.10;;;11.80;99.90;;;;;;5039104;28;20428;-70
2023/04/16 12:12:47;;;;;;;10.90;8.90;;;11.80;99.90;;;;;;5036462;28;20510;-68
2023/04/16 12:15:12;;;;;;;10.80;8.87;;;11.50;99.90;;;;;;5043977;28;20170;-68
2023/04/16 12:17:38;;;;;;;11.60;8.43;;;11.30;99.90;;;;;;5045914;28;20700;-68
2023/04/16 12:20:12;;;;;;;11.50;9.90;;;11.20;99.90;;;;;;5047680;28;20172;-70
2023/04/16 12:22:40;;;;;;;10.30;8.30;;;11.20;99.90;;;;;;5034287;28;20262;-70
2023/04/16 12:25:15;;;;;;;11.43;9.00;;;11.20;99.90;;;;;;5036790;28;20426;-68
2023/04/16 12:27:49;;;;;;;12.13;8.80;;;11.10;99.90;;;;;;5037135;28;20535;-68
2023/04/16 12:30:16;;;;;;;9.73;8.73;;;10.90;99.90;;;;;;5041160;28;20943;-70
2023/04/16 12:32:43;;;;;;;10.40;9.33;;;10.90;99.90;;;;;;5047557;28;20932;-68
2023/04/16 12:35:10;;;;;;;17.83;9.80;;;10.80;99.90;;;;;;5034560;28;20473;-69